Time;durP1;ratioP1;P1;durP2;ratioP2;P2;SDS_P1;SDS_P2;PMS_P1;PMS_P2;Temp;Humidity;BMP_temperature;BMP_pressure;BME280_temperature;BME280_humidity;BME280_pressure;Samples;Min_cycle;Max_cycle;Signal;HPM_P1;HPM_P2
2023/10/09 00:01:46;;;;;;;2.10;0.80;;;;;;;21.65;54.39;99725.00;5092130;28;20198;-71
2023/10/09 00:04:13;;;;;;;4.83;1.30;;;;;;;21.61;54.49;99720.97;5092177;28;20204;-71
2023/10/09 00:06:41;;;;;;;0.90;0.90;;;;;;;21.56;54.92;99722.19;5092037;28;20199;-72
2023/10/09 00:09:25;;;;;;;0.97;0.93;;;;;;;21.57;54.63;99719.50;5092130;28;20696;-71
2023/10/09 00:11:57;;;;;;;0.93;0.50;;;;;;;21.57;54.73;99729.09;5091819;28;20195;-72
2023/10/09 00:14:24;;;;;;;0.83;0.80;;;;;;;21.59;55.09;99727.19;5092337;28;20195;-72
2023/10/09 00:17:05;;;;;;;1.00;0.90;;;;;;;21.62;54.92;99727.81;5091839;28;20219;-72
2023/10/09 00:19:33;;;;;;;7.60;0.90;;;;;;;21.66;54.72;99726.66;5091924;28;20320;-72
2023/10/09 00:22:04;;;;;;;1.00;0.93;;;;;;;21.67;54.84;99715.31;5091823;28;20260;-72
2023/10/09 00:24:33;;;;;;;0.40;0.40;;;;;;;21.70;54.55;99715.09;5091887;28;20199;-72
2023/10/09 00:27:11;;;;;;;0.50;0.50;;;;;;;21.75;54.99;99706.91;5091776;28;20579;-72
2023/10/09 00:29:44;;;;;;;3.57;0.80;;;;;;;21.73;54.92;99704.44;5091823;28;20202;-72
2023/10/09 00:32:22;;;;;;;0.57;0.57;;;;;;;21.78;53.81;99712.75;5091788;28;20202;-72
2023/10/09 00:34:50;;;;;;;1.73;0.67;;;;;;;21.76;53.75;99714.66;5091766;28;20282;-72
2023/10/09 00:37:22;;;;;;;0.90;0.90;;;;;;;21.78;53.78;99712.75;5091600;28;20560;-72
2023/10/09 00:39:55;;;;;;;0.93;0.93;;;;;;;21.77;53.95;99710.25;5091678;28;20608;-72
2023/10/09 00:42:27;;;;;;;0.40;0.40;;;;;;;21.77;54.25;99710.25;5090965;28;20199;-72
2023/10/09 00:44:55;;;;;;;0.50;0.50;;;;;;;21.72;54.15;99715.81;5091391;28;20198;-72
2023/10/09 00:47:34;;;;;;;0.67;0.67;;;;;;;21.66;53.82;99718.84;5091145;28;20199;-72
2023/10/09 00:50:10;;;;;;;0.53;0.53;;;;;;;21.61;53.47;99726.19;5091413;28;20210;-73
2023/10/09 00:52:43;;;;;;;0.83;0.70;;;;;;;21.54;52.54;99721.47;5091173;28;20289;-72
2023/10/09 00:55:14;;;;;;;1.33;1.10;;;;;;;21.45;52.87;99715.16;5089509;28;20282;-72
2023/10/09 00:57:48;;;;;;;1.03;0.53;;;;;;;21.39;52.72;99715.53;5091086;28;20215;-72
2023/10/09 01:00:32;;;;;;;0.40;0.40;;;;;;;21.40;52.09;99717.22;5091165;28;20206;-71
2023/10/09 01:03:18;;;;;;;0.30;0.30;;;;;;;21.39;52.23;99720.75;5090840;28;20298;-72
2023/10/09 01:05:51;;;;;;;0.63;0.50;;;;;;;21.24;52.22;99701.81;5091043;28;20618;-73
2023/10/09 01:08:25;;;;;;;2.80;0.50;;;;;;;21.40;52.20;99727.66;5090805;28;20285;-71
2023/10/09 01:10:56;;;;;;;0.33;0.33;;;;;;;21.37;52.45;99735.69;5091297;28;20253;-71
2023/10/09 01:13:27;;;;;;;0.50;0.33;;;;;;;21.38;52.04;99734.75;5090204;28;20194;-73
2023/10/09 01:15:58;;;;;;;2.73;0.53;;;;;;;21.33;51.61;99726.41;5090444;28;20633;-73
2023/10/09 01:18:35;;;;;;;0.60;0.60;;;;;;;21.39;50.97;99739.03;5090537;28;20595;-72
2023/10/09 01:21:02;;;;;;;0.50;0.50;;;;;;;21.40;50.83;99743.31;5091146;28;20233;-73
2023/10/09 01:23:31;;;;;;;0.60;0.60;;;;;;;21.43;51.29;99753.53;5090057;28;20203;-72
2023/10/09 01:25:57;;;;;;;0.67;0.67;;;;;;;21.46;51.24;99761.13;5090991;28;20209;-73
2023/10/09 01:28:26;;;;;;;1.60;0.50;;;;;;;21.46;51.26;99764.59;5090696;28;20195;-73
2023/10/09 01:30:55;;;;;;;0.70;0.70;;;;;;;21.51;51.27;99772.09;5090852;28;20723;-72
2023/10/09 01:33:26;;;;;;;0.40;0.40;;;;;;;21.54;50.94;99769.28;5090806;28;20207;-73
2023/10/09 01:35:58;;;;;;;1.17;0.53;;;;;;;21.57;51.74;99773.44;5090560;28;20202;-73
2023/10/09 01:38:40;;;;;;;0.77;0.50;;;;;;;21.48;52.09;99774.94;5089579;28;20217;-72
2023/10/09 01:41:15;;;;;;;0.77;0.67;;;;;;;21.55;51.87;99783.97;5091018;28;20674;-74
2023/10/09 01:43:44;;;;;;;0.90;0.90;;;;;;;21.59;52.21;99780.22;5090604;28;20209;-73
2023/10/09 01:46:11;;;;;;;0.73;0.70;;;;;;;21.60;51.91;99792.34;5090919;28;20198;-73
2023/10/09 01:48:40;;;;;;;0.50;0.50;;;;;;;21.61;52.35;99791.41;5090358;28;20190;-73
2023/10/09 01:51:08;;;;;;;0.40;0.40;;;;;;;21.56;52.25;99796.09;5090772;28;20207;-73
2023/10/09 01:53:38;;;;;;;0.57;0.57;;;;;;;21.56;52.78;99796.09;5090218;28;20191;-72
2023/10/09 01:56:14;;;;;;;0.73;0.73;;;;;;;21.50;52.74;99804.34;5089906;28;20199;-73
2023/10/09 01:58:45;;;;;;;0.90;0.90;;;;;;;21.49;52.37;99800.06;5089003;28;20225;-72
2023/10/09 02:01:12;;;;;;;2.00;1.07;;;;;;;21.49;52.48;99807.88;5089966;28;20629;-73
2023/10/09 02:03:42;;;;;;;0.90;0.70;;;;;;;21.38;52.46;99818.22;5089720;28;20199;-73
2023/10/09 02:06:24;;;;;;;0.50;0.50;;;;;;;21.26;52.64;99819.88;5090120;28;20195;-73
2023/10/09 02:08:53;;;;;;;0.60;0.60;;;;;;;21.12;53.14;99821.75;5090036;28;20187;-72
2023/10/09 02:11:36;;;;;;;0.73;0.73;;;;;;;21.03;53.56;99827.56;5090437;28;20236;-74
2023/10/09 02:14:15;;;;;;;0.70;0.70;;;;;;;20.82;54.02;99835.00;5090553;28;20198;-73
2023/10/09 02:16:42;;;;;;;0.70;0.70;;;;;;;20.74;54.38;99837.28;5089961;28;20195;-72
2023/10/09 02:19:28;;;;;;;0.60;0.60;;;;;;;20.57;54.74;99846.19;5090375;28;20197;-73
2023/10/09 02:21:56;;;;;;;2.47;0.67;;;;;;;20.58;54.64;99863.47;5089888;28;20270;-72
2023/10/09 02:24:42;;;;;;;0.73;0.73;;;;;;;20.60;54.44;99860.78;5090314;28;20687;-74
2023/10/09 02:27:15;;;;;;;0.80;0.80;;;;;;;20.64;54.31;99876.13;5092645;28;20285;-73
2023/10/09 02:29:42;;;;;;;0.57;0.57;;;;;;;20.49;54.21;99874.47;5093969;28;20200;-74
2023/10/09 02:32:25;;;;;;;0.73;0.63;;;;;;;20.13;55.98;99900.19;5093961;28;20233;-74
2023/10/09 02:34:53;;;;;;;0.90;0.90;;;;;;;19.82;57.45;99924.59;5093543;28;20199;-75
2023/10/09 02:37:23;;;;;;;0.97;0.67;;;;;;;19.34;59.95;99936.09;5094093;28;20709;-76
2023/10/09 02:39:52;;;;;;;0.90;0.90;;;;;;;18.72;63.31;99930.06;5093757;28;20199;-74
2023/10/09 02:42:23;;;;;;;0.50;0.50;;;;;;;18.66;63.59;99950.34;5094228;28;20208;-75
2023/10/09 02:44:51;;;;;;;0.57;0.57;;;;;;;18.12;63.61;99948.91;5093557;28;20191;-74
2023/10/09 02:47:20;;;;;;;0.70;0.70;;;;;;;17.76;63.97;99952.47;5093501;28;20279;-74
2023/10/09 02:49:50;;;;;;;0.60;0.60;;;;;;;17.69;64.09;99963.22;5093966;28;20206;-75
2023/10/09 02:52:19;;;;;;;0.50;0.50;;;;;;;17.30;64.61;99937.50;5093715;28;20195;-75
2023/10/09 02:54:47;;;;;;;0.70;0.70;;;;;;;17.25;64.92;99970.59;5093807;28;20195;-75
2023/10/09 02:57:21;;;;;;;1.20;1.10;;;;;;;17.16;64.69;99981.34;5093286;28;20211;-74
2023/10/09 02:59:51;;;;;;;0.70;0.70;;;;;;;17.04;65.49;99982.78;5093780;28;20687;-75
2023/10/09 03:02:19;;;;;;;0.60;0.60;;;;;;;16.76;66.17;99998.78;5093507;28;20199;-73
2023/10/09 03:04:45;;;;;;;1.10;1.10;;;;;;;16.66;65.80;99994.94;5093624;28;20727;-75
2023/10/09 03:07:13;;;;;;;1.90;0.70;;;;;;;16.60;66.19;100005.56;5093352;28;20679;-74
2023/10/09 03:09:40;;;;;;;0.73;0.73;;;;;;;16.47;66.05;100012.16;5093411;28;20586;-73
2023/10/09 03:12:09;;;;;;;1.07;0.77;;;;;;;16.38;66.38;100007.38;5093375;28;20218;-74
2023/10/09 03:14:39;;;;;;;0.50;0.50;;;;;;;16.42;66.58;100014.09;5093175;28;20195;-73
2023/10/09 03:17:11;;;;;;;0.70;0.70;;;;;;;16.33;66.75;100009.34;5093267;28;20207;-74
2023/10/09 03:19:38;;;;;;;8.20;0.70;;;;;;;16.25;66.82;100014.03;5093115;28;20306;-75
2023/10/09 03:22:04;;;;;;;0.80;0.80;;;;;;;16.18;66.73;100015.19;5092586;28;20208;-75
2023/10/09 03:24:31;;;;;;;0.50;0.50;;;;;;;16.19;66.51;100011.69;5093140;28;20202;-75
2023/10/09 03:26:58;;;;;;;0.53;0.53;;;;;;;16.17;66.09;100023.84;5093122;28;20294;-75
2023/10/09 03:29:27;;;;;;;0.50;0.50;;;;;;;16.10;66.10;100027.59;5092964;28;20735;-74
2023/10/09 03:31:55;;;;;;;0.83;0.60;;;;;;;15.97;66.33;100029.03;5092363;28;20249;-74
2023/10/09 03:34:24;;;;;;;0.53;0.53;;;;;;;15.92;66.56;100033.56;5092408;28;20199;-74
2023/10/09 03:37:03;;;;;;;0.53;0.53;;;;;;;15.84;66.74;100030.44;5092937;28;20294;-75
2023/10/09 03:39:34;;;;;;;0.70;0.70;;;;;;;15.84;66.79;100035.63;5087663;28;20214;-75
2023/10/09 03:42:04;;;;;;;6.23;0.90;;;;;;;15.61;66.89;100024.47;5092779;28;20199;-74
2023/10/09 03:44:33;;;;;;;0.50;0.50;;;;;;;15.86;66.57;100042.44;5092709;28;20202;-74
2023/10/09 03:47:00;;;;;;;3.93;0.73;;;;;;;15.83;67.01;100049.47;5092788;28;20199;-74
2023/10/09 03:49:29;;;;;;;0.50;0.50;;;;;;;15.80;67.19;100050.41;5092552;28;20196;-74
2023/10/09 03:51:56;;;;;;;1.73;0.73;;;;;;;15.89;66.41;100054.38;5092847;28;20207;-73
2023/10/09 03:54:24;;;;;;;2.10;0.70;;;;;;;15.79;64.95;100053.06;5092272;28;20234;-75
2023/10/09 03:56:51;;;;;;;0.70;0.70;;;;;;;15.70;64.48;100060.28;5092185;28;20663;-75
2023/10/09 03:59:19;;;;;;;0.53;0.53;;;;;;;15.72;63.51;100058.50;5092576;28;20682;-74
2023/10/09 04:01:48;;;;;;;0.50;0.50;;;;;;;15.47;63.16;100073.28;5092177;28;20230;-74
2023/10/09 04:04:15;;;;;;;0.40;0.40;;;;;;;15.49;63.07;100078.41;5092548;28;20780;-75
2023/10/09 04:06:43;;;;;;;0.40;0.40;;;;;;;15.46;63.17;100076.75;5091872;28;20207;-74
2023/10/09 04:12:06;;;;;;;0.60;0.60;;;;;;;15.42;62.43;100074.34;5090322;28;20269;-75
2023/10/09 04:14:33;;;;;;;0.87;0.80;;;;;;;15.41;61.54;100073.50;5087974;28;20204;-75
2023/10/09 04:17:05;;;;;;;0.60;0.60;;;;;;;15.24;62.12;100075.91;5091561;28;20716;-73
2023/10/09 04:19:38;;;;;;;0.50;0.50;;;;;;;15.25;62.05;100088.75;5091102;28;20227;-75
2023/10/09 04:22:08;;;;;;;0.73;0.73;;;;;;;15.25;61.86;100093.91;5086275;28;20282;-74
2023/10/09 04:24:41;;;;;;;2.27;0.47;;;;;;;15.29;61.21;100107.56;5089233;28;20279;-74
2023/10/09 04:27:08;;;;;;;1.07;0.50;;;;;;;14.83;61.36;100050.81;5090679;28;20660;-75
2023/10/09 04:29:38;;;;;;;0.50;0.50;;;;;;;15.21;61.00;100109.59;5088919;28;20578;-74
2023/10/09 04:32:07;;;;;;;2.13;0.60;;;;;;;15.18;61.04;100117.47;5091099;28;20205;-74
2023/10/09 04:34:35;;;;;;;5.43;0.70;;;;;;;15.09;60.96;100116.03;5091993;28;20236;-74
2023/10/09 04:37:19;;;;;;;0.47;0.47;;;;;;;15.08;60.38;100116.13;5090652;28;20666;-72
2023/10/09 04:39:47;;;;;;;0.70;0.70;;;;;;;15.00;60.23;100124.13;5091635;28;20274;-74
2023/10/09 04:47:49;;;;;;;0.60;0.60;;;;;;;14.65;59.09;100122.84;5091172;28;20571;-74
2023/10/09 04:50:36;;;;;;;0.50;0.50;;;;;;;14.78;59.07;100141.31;5088995;28;20195;-73
2023/10/09 04:53:22;;;;;;;0.60;0.60;;;;;;;14.83;58.69;100133.41;5091285;28;21660;-73
2023/10/09 04:55:57;;;;;;;0.50;0.50;;;;;;;14.86;58.36;100146.22;5090954;28;20631;-74
2023/10/09 04:58:27;;;;;;;4.70;0.60;;;;;;;14.78;58.17;100140.47;5090978;28;20214;-73
2023/10/09 05:01:12;;;;;;;0.77;0.77;;;;;;;14.70;58.46;100151.88;5091402;28;20292;-74
2023/10/09 05:03:44;;;;;;;1.10;1.03;;;;;;;14.63;58.32;100150.44;5090715;28;20248;-74
2023/10/09 05:09:07;;;;;;;3.03;0.50;;;;;;;14.61;57.87;100154.78;5091343;28;20274;-73
2023/10/09 05:11:52;;;;;;;0.90;0.80;;;;;;;14.66;57.63;100141.75;5090007;28;20211;-74
2023/10/09 05:14:26;;;;;;;0.73;0.50;;;;;;;14.67;57.99;100159.75;5083843;28;20203;-74
2023/10/09 05:17:01;;;;;;;0.40;0.40;;;;;;;14.71;57.39;100174.22;5089947;28;20217;-74
2023/10/09 05:19:33;;;;;;;1.40;0.50;;;;;;;14.61;57.71;100177.16;5088252;28;20223;-74
2023/10/09 05:22:04;;;;;;;0.77;0.77;;;;;;;14.65;57.55;100171.88;5083576;28;20217;-74
2023/10/09 05:24:43;;;;;;;0.77;0.77;;;;;;;14.67;57.37;100182.13;5088040;28;20208;-74
2023/10/09 05:27:24;;;;;;;0.50;0.50;;;;;;;14.73;57.18;100187.91;5085874;28;20248;-74
2023/10/09 05:30:12;;;;;;;0.70;0.70;;;;;;;14.75;56.72;100184.44;5086342;28;20653;-74
2023/10/09 05:32:48;;;;;;;0.80;0.63;;;;;;;14.66;56.50;100194.19;5084907;28;20726;-71
2023/10/09 05:35:15;;;;;;;0.50;0.50;;;;;;;14.60;56.34;100201.31;5087001;28;20710;-70
2023/10/09 05:37:46;;;;;;;1.00;1.00;;;;;;;14.56;56.06;100210.88;5088773;28;20211;-70
2023/10/09 05:40:23;;;;;;;0.53;0.53;;;;;;;14.52;56.02;100209.28;5088846;28;20658;-71
2023/10/09 05:43:02;;;;;;;0.50;0.50;;;;;;;14.60;55.75;100217.59;5087492;28;20208;-70
2023/10/09 05:51:19;;;;;;;0.50;0.50;;;;;;;14.53;55.07;100230.78;5088391;28;20340;-73
2023/10/09 05:54:12;;;;;;;0.40;0.40;;;;;;;14.53;54.48;100234.22;5087536;28;20206;-71
2023/10/09 06:05:04;;;;;;;0.90;0.90;;;;;;;14.60;53.54;100248.56;5089287;28;20218;-70
2023/10/09 06:08:04;;;;;;;0.60;0.60;;;;;;;14.55;53.61;100250.47;5093178;28;20260;-71
2023/10/09 06:10:39;;;;;;;0.70;0.70;;;;;;;14.58;53.46;100260.69;5092419;28;20206;-70
2023/10/09 06:13:06;;;;;;;0.47;0.47;;;;;;;14.61;53.68;100267.50;5091517;28;20207;-71
2023/10/09 06:18:33;;;;;;;0.87;0.87;;;;;;;14.58;53.85;100291.66;5082234;28;20348;-71
2023/10/09 06:24:09;;;;;;;1.13;1.13;;;;;;;14.72;53.27;100309.28;5091220;28;20220;-75
2023/10/09 06:26:36;;;;;;;0.70;0.70;;;;;;;14.80;53.37;100315.03;5087291;28;20587;-74
2023/10/09 06:32:15;;;;;;;0.97;0.67;;;;;;;14.75;53.28;100332.41;5074021;28;20644;-71
2023/10/09 06:34:44;;;;;;;0.60;0.60;;;;;;;14.56;54.11;100316.69;5088686;28;20242;-70
2023/10/09 06:37:34;;;;;;;0.50;0.50;;;;;;;14.86;53.11;100352.72;5092046;28;20196;-70
2023/10/09 06:42:55;;;;;;;0.60;0.60;;;;;;;15.02;53.36;100359.09;5020187;28;20630;-68
2023/10/09 06:45:22;;;;;;;0.50;0.50;;;;;;;14.98;53.41;100360.06;5089958;28;20207;-72
2023/10/09 06:47:55;;;;;;;0.53;0.53;;;;;;;14.91;53.68;100372.34;5092309;28;20594;-72
2023/10/09 06:50:55;;;;;;;0.53;0.53;;;;;;;14.91;53.91;100376.66;5090656;28;20210;-69
2023/10/09 06:53:20;;;;;;;0.53;0.53;;;;;;;14.97;53.69;100369.56;5089465;28;20207;-69
2023/10/09 06:55:51;;;;;;;1.73;0.80;;;;;;;14.96;53.76;100364.47;5088631;28;20585;-70
2023/10/09 06:58:23;;;;;;;0.60;0.60;;;;;;;15.08;54.22;100385.56;5091014;28;20219;-70
2023/10/09 07:01:00;;;;;;;0.63;0.63;;;;;;;15.22;53.73;100385.91;5089577;28;20201;-71
2023/10/09 07:03:29;;;;;;;0.77;0.77;;;;;;;15.27;53.44;100380.63;5087590;28;20195;-71
2023/10/09 07:06:09;;;;;;;0.47;0.47;;;;;;;15.39;53.40;100385.34;5086232;28;20238;-71
2023/10/09 07:08:37;;;;;;;0.50;0.50;;;;;;;15.27;52.76;100364.25;5090915;28;20252;-72
2023/10/09 07:13:52;;;;;;;0.50;0.50;;;;;;;15.40;53.25;100383.63;5088754;28;20216;-70
2023/10/09 07:16:38;;;;;;;2.37;0.60;;;;;;;15.48;53.12;100385.06;5090898;28;20209;-69
2023/10/09 07:19:35;;;;;;;0.60;0.60;;;;;;;15.50;53.20;100385.03;5091285;28;20218;-68
2023/10/09 07:22:02;;;;;;;0.50;0.50;;;;;;;15.53;52.93;100382.34;5091647;28;20282;-70
2023/10/09 07:24:37;;;;;;;0.70;0.70;;;;;;;15.87;52.02;100381.97;5084985;28;20210;-70
2023/10/09 07:27:08;;;;;;;1.20;0.50;;;;;;;15.97;51.39;100380.75;5090656;28;20749;-70
2023/10/09 07:29:47;;;;;;;0.50;0.50;;;;;;;16.12;51.66;100375.03;5088076;28;20238;-70
2023/10/09 07:32:20;;;;;;;0.70;0.70;;;;;;;16.25;52.35;100378.84;5091200;28;20203;-71
2023/10/09 07:34:57;;;;;;;0.40;0.40;;;;;;;16.27;50.80;100380.47;5090017;28;20268;-70
2023/10/09 07:37:24;;;;;;;0.70;0.70;;;;;;;16.55;50.91;100385.44;5090711;28;20631;-70
2023/10/09 07:39:58;;;;;;;0.67;0.67;;;;;;;16.60;49.71;100360.25;5088791;28;20227;-70
2023/10/09 07:42:43;;;;;;;0.87;0.73;;;;;;;17.09;49.68;100390.16;5091087;28;20286;-71
2023/10/09 07:46:29;;;;;;;0.70;0.50;;;;;;;17.34;49.04;100382.22;5089681;28;20203;-71
2023/10/09 07:48:04;;;;;;;0.60;0.60;;;;;;;17.63;48.05;100392.22;5089251;28;20277;-71
2023/10/09 07:50:48;;;;;;;0.50;0.50;;;;;;;17.79;47.10;100367.31;5090138;28;20286;-70
2023/10/09 07:53:26;;;;;;;0.60;0.60;;;;;;;18.10;46.62;100387.53;5090627;28;20195;-71
2023/10/09 07:55:58;;;;;;;0.60;0.60;;;;;;;18.23;46.03;100382.63;5088959;28;20250;-69
2023/10/09 07:58:26;;;;;;;0.70;0.70;;;;;;;18.32;46.13;100382.19;5086910;28;20575;-71
2023/10/09 08:03:38;;;;;;;0.50;0.50;;;;;;;18.47;45.56;100386.69;5087916;28;20751;-70
2023/10/09 08:06:37;;;;;;;0.60;0.60;;;;;;;18.40;45.78;100380.09;5088144;28;20201;-71
2023/10/09 08:11:59;;;;;;;1.20;1.20;;;;;;;18.67;45.61;100386.63;5079692;28;20208;-70
2023/10/09 08:14:45;;;;;;;0.83;0.70;;;;;;;18.58;45.90;100381.84;5090659;28;20227;-71
2023/10/09 08:17:17;;;;;;;0.60;0.60;;;;;;;18.68;45.54;100395.25;5088640;28;20198;-71
2023/10/09 08:19:57;;;;;;;0.60;0.60;;;;;;;18.66;46.01;100371.94;5088478;28;20227;-69
2023/10/09 08:22:50;;;;;;;2.30;0.70;;;;;;;18.94;45.46;100381.84;5090378;28;20197;-71
2023/10/09 08:25:28;;;;;;;0.90;0.90;;;;;;;19.01;44.58;100382.38;5089717;28;20196;-71
2023/10/09 08:27:57;;;;;;;0.70;0.70;;;;;;;19.25;44.42;100381.19;5089658;28;20208;-71
2023/10/09 08:30:28;;;;;;;0.70;0.70;;;;;;;19.32;44.54;100387.75;5088602;28;20573;-70
2023/10/09 08:33:02;;;;;;;0.73;0.73;;;;;;;19.41;44.43;100382.13;5090666;28;20651;-71
2023/10/09 08:35:29;;;;;;;0.70;0.70;;;;;;;19.40;44.41;100375.22;5088289;28;20671;-69
2023/10/09 08:38:00;;;;;;;0.50;0.50;;;;;;;19.54;44.81;100375.38;5088184;28;20312;-70
2023/10/09 08:40:37;;;;;;;0.60;0.60;;;;;;;19.56;44.63;100376.13;5091078;28;20666;-70
2023/10/09 08:43:10;;;;;;;2.47;1.37;;;;;;;19.68;44.05;100362.47;5088795;28;20202;-70
2023/10/09 08:45:40;;;;;;;0.50;0.50;;;;;;;19.75;43.60;100360.41;5091005;28;20255;-71
2023/10/09 08:48:12;;;;;;;0.70;0.70;;;;;;;19.63;43.12;100356.69;5089594;28;20206;-71
2023/10/09 08:50:39;;;;;;;0.70;0.70;;;;;;;19.54;44.74;100367.56;5089613;28;20205;-70
2023/10/09 08:53:07;;;;;;;0.57;0.57;;;;;;;19.75;43.94;100357.78;5087554;28;20205;-70
2023/10/09 08:55:37;;;;;;;0.70;0.70;;;;;;;19.70;43.76;100358.06;5089793;28;20331;-71
2023/10/09 08:58:10;;;;;;;0.80;0.80;;;;;;;19.81;43.49;100350.50;5087038;28;20229;-71
2023/10/09 09:00:43;;;;;;;1.07;0.90;;;;;;;19.90;44.08;100350.00;5090357;28;20695;-71
2023/10/09 09:03:10;;;;;;;0.83;0.80;;;;;;;19.88;43.71;100351.88;5090145;28;20276;-71
2023/10/09 09:05:36;;;;;;;6.03;0.93;;;;;;;19.90;44.76;100352.63;5091173;28;20552;-72
2023/10/09 09:08:04;;;;;;;1.40;1.10;;;;;;;19.91;45.28;100341.28;5086063;28;20661;-70
2023/10/09 09:10:36;;;;;;;0.70;0.70;;;;;;;20.02;44.29;100347.69;5090439;28;20208;-71
2023/10/09 09:13:03;;;;;;;2.13;1.20;;;;;;;19.93;44.38;100313.41;5089360;28;20631;-70
2023/10/09 09:15:31;;;;;;;1.13;1.13;;;;;;;20.29;43.74;100343.63;5090585;28;20466;-71
2023/10/09 09:18:10;;;;;;;2.63;1.60;;;;;;;20.38;45.05;100335.31;5089499;28;20664;-70
2023/10/09 09:20:40;;;;;;;2.93;0.87;;;;;;;20.60;43.42;100335.78;5089799;28;20270;-70
2023/10/09 09:23:12;;;;;;;0.70;0.70;;;;;;;20.76;42.92;100328.75;5088101;28;20212;-70
2023/10/09 09:25:45;;;;;;;0.67;0.67;;;;;;;20.83;42.84;100332.69;5089977;28;20230;-71
2023/10/09 09:28:19;;;;;;;0.70;0.70;;;;;;;20.69;42.40;100330.03;5090515;28;20260;-71
2023/10/09 09:30:50;;;;;;;0.60;0.60;;;;;;;20.76;42.31;100304.47;5091016;28;20720;-70
2023/10/09 09:33:39;;;;;;;0.60;0.60;;;;;;;21.01;43.39;100325.56;5090432;28;20198;-71
2023/10/09 09:36:07;;;;;;;1.70;0.60;;;;;;;21.05;42.56;100316.66;5089655;28;20209;-72
2023/10/09 09:38:48;;;;;;;0.70;0.70;;;;;;;20.98;42.71;100317.09;5089881;28;20206;-70
2023/10/09 09:41:24;;;;;;;0.67;0.67;;;;;;;20.86;42.53;100310.84;5090113;28;20237;-70
2023/10/09 09:43:55;;;;;;;1.17;0.77;;;;;;;20.68;43.07;100307.50;5090297;28;20206;-71
2023/10/09 09:46:27;;;;;;;0.60;0.60;;;;;;;20.40;43.81;100299.56;5090073;28;20637;-71
2023/10/09 09:49:00;;;;;;;0.97;0.97;;;;;;;20.46;45.09;100301.00;5090284;28;20199;-71
2023/10/09 09:51:29;;;;;;;0.67;0.67;;;;;;;20.30;45.35;100282.78;5090070;28;20211;-72
2023/10/09 09:53:57;;;;;;;0.50;0.50;;;;;;;20.13;44.96;100286.28;5088899;28;20204;-71
2023/10/09 09:56:26;;;;;;;0.60;0.60;;;;;;;20.35;45.10;100278.19;5089339;28;20206;-72
2023/10/09 09:58:56;;;;;;;0.70;0.70;;;;;;;20.45;43.96;100271.53;5085503;28;20595;-71
2023/10/09 10:01:27;;;;;;;1.43;0.70;;;;;;;20.61;45.39;100274.09;5085734;28;20205;-71
2023/10/09 10:03:58;;;;;;;5.17;0.70;;;;;;;20.78;44.23;100266.97;5089148;28;20226;-70
2023/10/09 10:06:29;;;;;;;0.77;0.70;;;;;;;20.98;43.79;100257.13;5088380;28;20636;-70
2023/10/09 10:08:56;;;;;;;0.43;0.43;;;;;;;21.08;43.39;100255.66;5088222;28;20218;-71
2023/10/09 10:11:45;;;;;;;0.73;0.70;;;;;;;21.10;43.79;100248.63;5089585;28;20204;-71
2023/10/09 10:14:21;;;;;;;1.70;0.80;;;;;;;21.25;43.11;100237.25;5078354;28;20203;-70
2023/10/09 10:17:11;;;;;;;0.60;0.60;;;;;;;21.34;44.42;100228.88;5088295;28;20296;-70
2023/10/09 10:22:48;;;;;;;0.63;0.63;;;;;;;21.44;43.36;100224.78;5078380;28;20217;-71
2023/10/09 10:25:41;;;;;;;1.53;0.70;;;;;;;21.39;42.36;100209.38;5086245;28;20619;-70
2023/10/09 10:28:28;;;;;;;1.80;0.80;;;;;;;21.42;42.85;100211.00;5087803;28;20211;-71
2023/10/09 10:30:55;;;;;;;0.50;0.50;;;;;;;21.43;43.36;100210.03;5088034;28;20202;-71
2023/10/09 10:33:24;;;;;;;1.43;0.80;;;;;;;21.44;43.28;100214.34;5086392;28;20214;-71
2023/10/09 10:35:55;;;;;;;0.60;0.60;;;;;;;21.50;43.18;100210.50;5087457;28;20204;-72
2023/10/09 10:38:34;;;;;;;0.70;0.70;;;;;;;21.56;42.19;100195.28;5089090;28;20667;-70
2023/10/09 10:41:16;;;;;;;3.80;0.70;;;;;;;21.78;42.27;100195.63;5087187;28;20222;-70
2023/10/09 10:44:33;;;;;;;0.30;0.30;;;;;;;21.89;41.98;100179.31;5088770;28;20199;-71
2023/10/09 10:46:53;;;;;;;0.80;0.80;;;;;;;22.18;41.97;100196.53;5087154;28;20574;-72
2023/10/09 10:49:21;;;;;;;1.40;0.80;;;;;;;22.13;41.46;100197.78;5090176;28;20199;-73
2023/10/09 10:52:00;;;;;;;1.03;0.93;;;;;;;22.10;40.89;100190.16;5092636;28;20222;-70
2023/10/09 10:54:45;;;;;;;0.90;0.90;;;;;;;22.06;40.84;100186.06;5092588;28;20210;-71
2023/10/09 11:01:00;;;;;;;0.83;0.83;;;;;;;22.12;40.45;100164.75;5089886;28;20241;-69
2023/10/09 11:03:13;;;;;;;2.23;1.00;;;;;;;22.01;40.58;100154.16;5093166;28;20728;-68
2023/10/09 11:05:42;;;;;;;0.70;0.70;;;;;;;22.06;40.30;100154.72;5090153;28;20709;-68
2023/10/09 11:08:11;;;;;;;0.90;0.90;;;;;;;22.03;40.47;100147.09;5090824;28;20199;-69
2023/10/09 11:10:49;;;;;;;0.53;0.53;;;;;;;22.11;40.69;100153.47;5091024;28;20198;-70
2023/10/09 11:13:35;;;;;;;1.37;0.80;;;;;;;22.09;39.65;100154.53;5092624;28;20297;-69
2023/10/09 11:16:24;;;;;;;0.80;0.80;;;;;;;22.24;41.01;100140.44;5092151;28;20574;-70
2023/10/09 11:18:51;;;;;;;0.50;0.50;;;;;;;22.30;39.66;100137.41;5092881;28;20203;-70
2023/10/09 11:21:30;;;;;;;0.70;0.70;;;;;;;22.40;39.39;100133.25;5092290;28;20334;-68
2023/10/09 11:23:58;;;;;;;0.80;0.80;;;;;;;22.27;39.81;100124.56;5091961;28;20572;-69
2023/10/09 11:26:26;;;;;;;0.50;0.50;;;;;;;22.14;40.94;100110.63;5091921;28;20195;-69
2023/10/09 11:29:16;;;;;;;0.50;0.50;;;;;;;22.14;40.78;100110.63;5090809;28;20678;-69
2023/10/09 11:31:57;;;;;;;0.63;0.63;;;;;;;22.32;40.83;100101.59;5091651;28;20681;-69
2023/10/09 11:34:31;;;;;;;0.50;0.50;;;;;;;22.32;40.31;100093.75;5091935;28;20203;-70
2023/10/09 11:36:58;;;;;;;1.63;0.97;;;;;;;22.34;41.10;100084.03;5091106;28;20199;-69
2023/10/09 11:39:34;;;;;;;0.80;0.80;;;;;;;22.31;40.25;100077.25;5091746;28;20313;-69
2023/10/09 11:42:05;;;;;;;1.13;0.90;;;;;;;22.16;40.31;100046.94;5091935;28;20673;-69
2023/10/09 11:44:39;;;;;;;1.57;0.87;;;;;;;22.38;40.35;100072.44;5090997;28;20249;-70
2023/10/09 11:47:32;;;;;;;0.70;0.70;;;;;;;22.27;40.14;100062.72;5091983;28;20618;-70
2023/10/09 11:50:16;;;;;;;0.87;0.73;;;;;;;22.38;40.28;100067.22;5091768;28;20196;-70
2023/10/09 11:53:08;;;;;;;0.60;0.60;;;;;;;22.21;38.96;100076.19;5092227;28;20207;-68
2023/10/09 11:55:36;;;;;;;4.57;0.70;;;;;;;22.30;39.13;100059.88;5090792;28;20307;-69
2023/10/09 11:58:04;;;;;;;0.80;0.80;;;;;;;22.43;39.54;100054.66;5091202;28;20199;-67
2023/10/09 12:00:42;;;;;;;0.70;0.40;;;;;;;22.53;39.69;100055.69;5089844;28;20219;-70
2023/10/09 12:03:11;;;;;;;2.77;0.70;;;;;;;22.23;38.83;100050.78;5090278;28;20203;-65
2023/10/09 12:05:37;;;;;;;1.93;0.70;;;;;;;22.34;40.44;100050.06;5088849;28;20267;-67
2023/10/09 12:08:08;;;;;;;0.90;0.90;;;;;;;22.15;39.09;100054.88;5090192;28;20209;-68
2023/10/09 12:10:38;;;;;;;0.80;0.80;;;;;;;22.13;39.20;100030.63;5090226;28;20719;-67
2023/10/09 12:13:05;;;;;;;1.90;0.70;;;;;;;22.14;39.44;100022.69;5091297;28;20663;-69
2023/10/09 12:15:37;;;;;;;0.70;0.70;;;;;;;22.17;39.39;100019.03;5091211;28;20261;-69
2023/10/09 12:18:15;;;;;;;0.83;0.83;;;;;;;22.32;39.26;100023.22;5090507;28;20297;-69
2023/10/09 12:20:49;;;;;;;0.60;0.60;;;;;;;22.40;39.38;100028.75;5089044;28;20226;-71
2023/10/09 12:23:16;;;;;;;0.87;0.87;;;;;;;22.48;38.76;100018.63;5088352;28;20286;-69
2023/10/09 12:25:44;;;;;;;0.70;0.70;;;;;;;22.50;38.12;100014.09;5091952;28;20579;-70
2023/10/09 12:28:12;;;;;;;0.80;0.80;;;;;;;22.40;39.25;99998.22;5090665;28;20195;-70
2023/10/09 12:30:40;;;;;;;0.50;0.50;;;;;;;22.55;38.17;100006.78;5089765;28;20380;-70
2023/10/09 12:33:08;;;;;;;0.60;0.60;;;;;;;22.59;37.77;100003.00;5089983;28;20280;-70
2023/10/09 12:35:39;;;;;;;0.57;0.53;;;;;;;22.73;38.38;100002.06;5090929;28;20257;-69
2023/10/09 12:38:08;;;;;;;0.53;0.53;;;;;;;22.62;37.34;99997.56;5089882;28;20207;-71
2023/10/09 12:40:36;;;;;;;0.50;0.50;;;;;;;22.61;38.10;99985.47;5090283;28;20215;-70
2023/10/09 12:43:03;;;;;;;0.90;0.90;;;;;;;22.62;38.04;99981.06;5089345;28;20196;-70
2023/10/09 12:45:32;;;;;;;3.73;0.70;;;;;;;22.57;38.53;99973.53;5090255;28;20199;-69
2023/10/09 12:48:02;;;;;;;0.70;0.70;;;;;;;22.68;38.68;99978.06;5088389;28;20203;-70